In Rescue
 
Open Full Screen Window  High Contrast Mode
October 19, 2020 9:01 PM EDT
Weather Information
Wind Direction
  ---
Wind Speed
  00 kt (0 mph)
Wind Gust
  00 kt (0 mph)
Altimeter
30.20 in
Visibility
10 SM
Temperature
06° C
43° F
Dewpoint
04° C
39° F
Humidity
87%
Sky Condition
Overcast @ 7,500 ft
Broken @ 6,000 ft
VFR

METAR KLWA 200101Z AUTO 00000KT 10SM BKN060 OVC075 06/04 A3020 RMK AO2 T00550040

FAA Disclaimer: The data displayed is for advisory purposes only and is not to be used for flight planning or operations.